sensor_id;sensor_type;location;lat;lon;timestamp;temperature;humidity
1297;DHT22;641;48.492;9.184;2022-10-15T00:01:39;18.20;99.90
1297;DHT22;641;48.492;9.184;2022-10-15T00:04:05;17.40;99.90
1297;DHT22;641;48.492;9.184;2022-10-15T00:06:31;17.70;99.90
1297;DHT22;641;48.492;9.184;2022-10-15T00:08:56;17.50;99.90
1297;DHT22;641;48.492;9.184;2022-10-15T00:11:25;17.30;99.90
1297;DHT22;641;48.492;9.184;2022-10-15T00:13:53;17.30;99.90
1297;DHT22;641;48.492;9.184;2022-10-15T00:16:21;17.50;99.90
1297;DHT22;641;48.492;9.184;2022-10-15T00:18:48;17.30;99.90
1297;DHT22;641;48.492;9.184;2022-10-15T00:21:16;17.90;99.90
1297;DHT22;641;48.492;9.184;2022-10-15T00:23:43;17.30;99.90
1297;DHT22;641;48.492;9.184;2022-10-15T00:26:11;17.70;99.90
1297;DHT22;641;48.492;9.184;2022-10-15T00:28:38;17.30;99.90
1297;DHT22;641;48.492;9.184;2022-10-15T00:31:07;17.70;99.90
1297;DHT22;641;48.492;9.184;2022-10-15T00:33:33;17.40;99.90
1297;DHT22;641;48.492;9.184;2022-10-15T00:36:18;17.40;99.90
1297;DHT22;641;48.492;9.184;2022-10-15T00:38:44;17.40;99.90
1297;DHT22;641;48.492;9.184;2022-10-15T00:41:31;17.40;99.90
1297;DHT22;641;48.492;9.184;2022-10-15T00:43:59;17.40;99.90
1297;DHT22;641;48.492;9.184;2022-10-15T00:46:36;17.40;99.90
1297;DHT22;641;48.492;9.184;2022-10-15T00:49:31;17.50;99.90
1297;DHT22;641;48.492;9.184;2022-10-15T00:51:59;17.30;99.90
1297;DHT22;641;48.492;9.184;2022-10-15T00:54:26;17.70;99.90
1297;DHT22;641;48.492;9.184;2022-10-15T00:56:54;17.30;99.90
1297;DHT22;641;48.492;9.184;2022-10-15T00:59:21;17.30;99.90
1297;DHT22;641;48.492;9.184;2022-10-15T01:01:48;17.70;99.90
1297;DHT22;641;48.492;9.184;2022-10-15T01:04:13;17.70;99.90
1297;DHT22;641;48.492;9.184;2022-10-15T01:06:39;17.50;99.90
1297;DHT22;641;48.492;9.184;2022-10-15T01:09:05;17.50;99.90
1297;DHT22;641;48.492;9.184;2022-10-15T01:17:19;17.50;99.90
1297;DHT22;641;48.492;9.184;2022-10-15T01:20:33;17.60;99.90
1297;DHT22;641;48.492;9.184;2022-10-15T01:23:20;17.70;99.90
1297;DHT22;641;48.492;9.184;2022-10-15T01:25:54;17.70;99.90
1297;DHT22;641;48.492;9.184;2022-10-15T01:31:49;17.60;99.90
1297;DHT22;641;48.492;9.184;2022-10-15T01:34:00;17.70;99.90
1297;DHT22;641;48.492;9.184;2022-10-15T01:36:34;17.70;99.90
1297;DHT22;641;48.492;9.184;2022-10-15T01:39:22;17.70;99.90
1297;DHT22;641;48.492;9.184;2022-10-15T01:41:59;17.60;99.90
1297;DHT22;641;48.492;9.184;2022-10-15T01:44:37;17.60;99.90
1297;DHT22;641;48.492;9.184;2022-10-15T01:47:13;17.60;99.90
1297;DHT22;641;48.492;9.184;2022-10-15T01:49:43;17.50;99.90
1297;DHT22;641;48.492;9.184;2022-10-15T01:52:15;17.50;99.90
1297;DHT22;641;48.492;9.184;2022-10-15T01:54:41;17.60;99.90
1297;DHT22;641;48.492;9.184;2022-10-15T01:57:09;17.60;99.90
1297;DHT22;641;48.492;9.184;2022-10-15T01:59:35;17.50;99.90
1297;DHT22;641;48.492;9.184;2022-10-15T02:02:01;17.60;99.90
1297;DHT22;641;48.492;9.184;2022-10-15T02:04:31;17.80;99.90
1297;DHT22;641;48.492;9.184;2022-10-15T02:09:54;17.50;99.90
1297;DHT22;641;48.492;9.184;2022-10-15T02:18:00;17.50;99.90
1297;DHT22;641;48.492;9.184;2022-10-15T02:20:44;17.70;99.90
1297;DHT22;641;48.492;9.184;2022-10-15T02:23:24;17.50;99.90
1297;DHT22;641;48.492;9.184;2022-10-15T02:25:52;17.50;99.90
1297;DHT22;641;48.492;9.184;2022-10-15T02:28:20;17.90;99.90
1297;DHT22;641;48.492;9.184;2022-10-15T02:30:48;17.80;99.90
1297;DHT22;641;48.492;9.184;2022-10-15T02:33:17;18.50;99.90
1297;DHT22;641;48.492;9.184;2022-10-15T02:35:46;18.20;99.90
1297;DHT22;641;48.492;9.184;2022-10-15T02:38:14;17.70;99.90
1297;DHT22;641;48.492;9.184;2022-10-15T02:40:42;17.90;99.90
1297;DHT22;641;48.492;9.184;2022-10-15T02:43:09;17.60;99.90
1297;DHT22;641;48.492;9.184;2022-10-15T02:45:36;17.70;99.90
1297;DHT22;641;48.492;9.184;2022-10-15T02:48:01;17.70;99.90
1297;DHT22;641;48.492;9.184;2022-10-15T02:50:27;17.50;99.90
1297;DHT22;641;48.492;9.184;2022-10-15T02:52:53;17.60;99.90
1297;DHT22;641;48.492;9.184;2022-10-15T02:55:18;18.00;99.90
1297;DHT22;641;48.492;9.184;2022-10-15T02:57:44;17.70;99.90
1297;DHT22;641;48.492;9.184;2022-10-15T03:00:10;17.80;99.90
1297;DHT22;641;48.492;9.184;2022-10-15T03:02:36;17.80;99.90
1297;DHT22;641;48.492;9.184;2022-10-15T03:05:01;17.80;99.90
1297;DHT22;641;48.492;9.184;2022-10-15T03:07:27;17.80;99.90
1297;DHT22;641;48.492;9.184;2022-10-15T03:09:52;17.50;99.90
1297;DHT22;641;48.492;9.184;2022-10-15T03:12:18;18.10;99.90
1297;DHT22;641;48.492;9.184;2022-10-15T03:14:50;17.80;99.90
1297;DHT22;641;48.492;9.184;2022-10-15T03:17:16;17.80;99.90
1297;DHT22;641;48.492;9.184;2022-10-15T03:19:42;17.80;99.90
1297;DHT22;641;48.492;9.184;2022-10-15T03:22:07;18.20;99.90
1297;DHT22;641;48.492;9.184;2022-10-15T03:24:33;18.30;99.90
1297;DHT22;641;48.492;9.184;2022-10-15T03:26:58;17.80;99.90
1297;DHT22;641;48.492;9.184;2022-10-15T03:29:24;18.30;99.90
1297;DHT22;641;48.492;9.184;2022-10-15T03:31:50;18.70;99.90
1297;DHT22;641;48.492;9.184;2022-10-15T03:34:16;18.30;99.90
1297;DHT22;641;48.492;9.184;2022-10-15T03:36:42;17.90;99.90
1297;DHT22;641;48.492;9.184;2022-10-15T03:39:07;18.40;99.90
1297;DHT22;641;48.492;9.184;2022-10-15T03:41:33;17.80;99.90
1297;DHT22;641;48.492;9.184;2022-10-15T03:44:04;17.80;99.90
1297;DHT22;641;48.492;9.184;2022-10-15T03:46:30;17.70;99.90
1297;DHT22;641;48.492;9.184;2022-10-15T03:48:55;17.70;99.90
1297;DHT22;641;48.492;9.184;2022-10-15T03:51:21;17.70;99.90
1297;DHT22;641;48.492;9.184;2022-10-15T03:53:46;18.30;99.90
1297;DHT22;641;48.492;9.184;2022-10-15T03:56:12;17.90;99.90
1297;DHT22;641;48.492;9.184;2022-10-15T03:58:37;17.40;99.90
1297;DHT22;641;48.492;9.184;2022-10-15T04:01:11;17.80;99.90
1297;DHT22;641;48.492;9.184;2022-10-15T04:03:37;17.50;99.90
1297;DHT22;641;48.492;9.184;2022-10-15T04:06:03;18.00;99.90
1297;DHT22;641;48.492;9.184;2022-10-15T04:08:28;17.60;99.90
1297;DHT22;641;48.492;9.184;2022-10-15T04:10:54;17.60;99.90
1297;DHT22;641;48.492;9.184;2022-10-15T04:13:19;17.90;99.90
1297;DHT22;641;48.492;9.184;2022-10-15T04:15:45;18.50;99.90
1297;DHT22;641;48.492;9.184;2022-10-15T04:18:12;18.70;99.90
1297;DHT22;641;48.492;9.184;2022-10-15T04:20:37;17.40;99.90
1297;DHT22;641;48.492;9.184;2022-10-15T04:23:03;18.30;99.90
1297;DHT22;641;48.492;9.184;2022-10-15T04:25:29;18.10;99.90
1297;DHT22;641;48.492;9.184;2022-10-15T04:27:55;18.30;99.90
1297;DHT22;641;48.492;9.184;2022-10-15T04:30:20;18.40;99.90
1297;DHT22;641;48.492;9.184;2022-10-15T04:32:46;18.10;99.90
1297;DHT22;641;48.492;9.184;2022-10-15T04:35:11;17.50;99.90
1297;DHT22;641;48.492;9.184;2022-10-15T04:37:37;17.60;99.90
1297;DHT22;641;48.492;9.184;2022-10-15T04:40:03;17.60;99.90
1297;DHT22;641;48.492;9.184;2022-10-15T04:42:30;17.60;99.90
1297;DHT22;641;48.492;9.184;2022-10-15T04:44:56;17.70;99.90
1297;DHT22;641;48.492;9.184;2022-10-15T04:47:22;18.40;99.90
1297;DHT22;641;48.492;9.184;2022-10-15T04:49:47;18.30;99.90
1297;DHT22;641;48.492;9.184;2022-10-15T04:52:13;17.90;99.90
1297;DHT22;641;48.492;9.184;2022-10-15T04:54:39;18.20;99.90
1297;DHT22;641;48.492;9.184;2022-10-15T04:57:05;18.00;99.90
1297;DHT22;641;48.492;9.184;2022-10-15T04:59:31;17.50;99.90
1297;DHT22;641;48.492;9.184;2022-10-15T05:01:57;17.60;99.90
1297;DHT22;641;48.492;9.184;2022-10-15T05:04:22;17.90;99.90
1297;DHT22;641;48.492;9.184;2022-10-15T05:06:48;17.90;99.90
1297;DHT22;641;48.492;9.184;2022-10-15T05:09:13;17.40;99.90
1297;DHT22;641;48.492;9.184;2022-10-15T05:11:39;17.40;99.90
1297;DHT22;641;48.492;9.184;2022-10-15T05:14:05;18.10;99.90
1297;DHT22;641;48.492;9.184;2022-10-15T05:16:32;18.20;99.90
1297;DHT22;641;48.492;9.184;2022-10-15T05:19:00;17.40;99.90
1297;DHT22;641;48.492;9.184;2022-10-15T05:21:26;18.00;99.90
1297;DHT22;641;48.492;9.184;2022-10-15T05:23:52;17.50;99.90
1297;DHT22;641;48.492;9.184;2022-10-15T05:26:23;17.20;99.90
1297;DHT22;641;48.492;9.184;2022-10-15T05:28:49;17.30;99.90
1297;DHT22;641;48.492;9.184;2022-10-15T05:31:20;17.30;99.90
1297;DHT22;641;48.492;9.184;2022-10-15T05:33:47;17.70;99.90
1297;DHT22;641;48.492;9.184;2022-10-15T05:38:48;17.50;99.90
1297;DHT22;641;48.492;9.184;2022-10-15T05:41:14;17.20;99.90
1297;DHT22;641;48.492;9.184;2022-10-15T05:43:40;17.80;99.90
1297;DHT22;641;48.492;9.184;2022-10-15T05:46:06;17.50;99.90
1297;DHT22;641;48.492;9.184;2022-10-15T05:48:31;17.30;99.90
1297;DHT22;641;48.492;9.184;2022-10-15T05:51:06;17.40;99.90
1297;DHT22;641;48.492;9.184;2022-10-15T05:53:33;17.70;99.90
1297;DHT22;641;48.492;9.184;2022-10-15T05:55:59;17.30;99.90
1297;DHT22;641;48.492;9.184;2022-10-15T05:58:26;17.80;99.90
1297;DHT22;641;48.492;9.184;2022-10-15T06:00:53;17.70;99.90
1297;DHT22;641;48.492;9.184;2022-10-15T06:03:19;17.90;99.90
1297;DHT22;641;48.492;9.184;2022-10-15T06:05:45;17.40;99.90
1297;DHT22;641;48.492;9.184;2022-10-15T06:08:10;17.80;99.90
1297;DHT22;641;48.492;9.184;2022-10-15T06:10:36;18.10;99.90
1297;DHT22;641;48.492;9.184;2022-10-15T06:13:03;17.80;99.90
1297;DHT22;641;48.492;9.184;2022-10-15T06:15:28;17.40;99.90
1297;DHT22;641;48.492;9.184;2022-10-15T06:17:54;17.90;99.90
1297;DHT22;641;48.492;9.184;2022-10-15T06:20:20;17.30;99.90
1297;DHT22;641;48.492;9.184;2022-10-15T06:22:45;17.30;99.90
1297;DHT22;641;48.492;9.184;2022-10-15T06:25:11;17.30;99.90
1297;DHT22;641;48.492;9.184;2022-10-15T06:27:36;17.40;99.90
1297;DHT22;641;48.492;9.184;2022-10-15T06:30:03;17.70;99.90
1297;DHT22;641;48.492;9.184;2022-10-15T06:32:28;17.40;99.90
1297;DHT22;641;48.492;9.184;2022-10-15T06:34:54;17.60;99.90
1297;DHT22;641;48.492;9.184;2022-10-15T06:37:20;17.50;99.90
1297;DHT22;641;48.492;9.184;2022-10-15T06:39:45;17.80;99.90
1297;DHT22;641;48.492;9.184;2022-10-15T06:42:11;17.60;99.90
1297;DHT22;641;48.492;9.184;2022-10-15T06:44:37;17.90;99.90
1297;DHT22;641;48.492;9.184;2022-10-15T06:47:03;17.50;99.90
1297;DHT22;641;48.492;9.184;2022-10-15T06:49:28;17.80;99.90
1297;DHT22;641;48.492;9.184;2022-10-15T06:51:54;17.60;99.90
1297;DHT22;641;48.492;9.184;2022-10-15T06:54:19;17.70;99.90
1297;DHT22;641;48.492;9.184;2022-10-15T06:56:45;17.80;99.90
1297;DHT22;641;48.492;9.184;2022-10-15T06:59:10;17.90;99.90
1297;DHT22;641;48.492;9.184;2022-10-15T07:01:36;17.80;99.90
1297;DHT22;641;48.492;9.184;2022-10-15T07:04:01;18.10;99.90
1297;DHT22;641;48.492;9.184;2022-10-15T07:06:27;17.90;99.90
1297;DHT22;641;48.492;9.184;2022-10-15T07:08:53;18.10;99.90
1297;DHT22;641;48.492;9.184;2022-10-15T07:11:18;18.10;99.90
1297;DHT22;641;48.492;9.184;2022-10-15T07:13:44;18.10;99.90
1297;DHT22;641;48.492;9.184;2022-10-15T07:16:11;17.90;99.90
1297;DHT22;641;48.492;9.184;2022-10-15T07:18:37;18.20;99.90
1297;DHT22;641;48.492;9.184;2022-10-15T07:21:05;18.00;99.90
1297;DHT22;641;48.492;9.184;2022-10-15T07:23:31;17.80;99.90
1297;DHT22;641;48.492;9.184;2022-10-15T07:25:58;18.20;99.90
1297;DHT22;641;48.492;9.184;2022-10-15T07:28:24;18.40;99.90
1297;DHT22;641;48.492;9.184;2022-10-15T07:30:49;18.30;99.90
1297;DHT22;641;48.492;9.184;2022-10-15T07:33:15;18.00;99.90
1297;DHT22;641;48.492;9.184;2022-10-15T07:35:41;18.10;99.90
1297;DHT22;641;48.492;9.184;2022-10-15T07:38:06;18.10;99.90
1297;DHT22;641;48.492;9.184;2022-10-15T07:40:32;18.20;99.90
1297;DHT22;641;48.492;9.184;2022-10-15T07:42:58;18.10;99.90
1297;DHT22;641;48.492;9.184;2022-10-15T07:45:25;18.30;99.90
1297;DHT22;641;48.492;9.184;2022-10-15T07:47:51;18.20;99.90
1297;DHT22;641;48.492;9.184;2022-10-15T07:50:17;18.20;99.90
1297;DHT22;641;48.492;9.184;2022-10-15T07:52:42;18.40;99.90
1297;DHT22;641;48.492;9.184;2022-10-15T07:55:08;18.60;99.90
1297;DHT22;641;48.492;9.184;2022-10-15T07:57:34;18.60;99.90
1297;DHT22;641;48.492;9.184;2022-10-15T07:59:59;18.60;99.90
1297;DHT22;641;48.492;9.184;2022-10-15T08:02:25;18.20;99.90
1297;DHT22;641;48.492;9.184;2022-10-15T08:04:51;18.20;99.90
1297;DHT22;641;48.492;9.184;2022-10-15T08:07:16;18.20;99.90
1297;DHT22;641;48.492;9.184;2022-10-15T08:09:42;18.20;99.90
1297;DHT22;641;48.492;9.184;2022-10-15T08:12:08;18.60;99.90
1297;DHT22;641;48.492;9.184;2022-10-15T08:14:34;18.20;99.90
1297;DHT22;641;48.492;9.184;2022-10-15T08:17:04;18.20;99.90
1297;DHT22;641;48.492;9.184;2022-10-15T08:19:30;18.20;99.90
1297;DHT22;641;48.492;9.184;2022-10-15T08:21:56;18.20;99.90
1297;DHT22;641;48.492;9.184;2022-10-15T08:24:23;18.30;99.90
1297;DHT22;641;48.492;9.184;2022-10-15T08:26:48;18.70;99.90
1297;DHT22;641;48.492;9.184;2022-10-15T08:29:14;18.60;99.90
1297;DHT22;641;48.492;9.184;2022-10-15T08:31:40;18.90;99.90
1297;DHT22;641;48.492;9.184;2022-10-15T08:34:06;18.60;99.90
1297;DHT22;641;48.492;9.184;2022-10-15T08:36:32;18.80;99.90
1297;DHT22;641;48.492;9.184;2022-10-15T08:38:58;19.00;99.90
1297;DHT22;641;48.492;9.184;2022-10-15T08:41:37;19.10;99.90
1297;DHT22;641;48.492;9.184;2022-10-15T08:44:05;19.20;99.90
1297;DHT22;641;48.492;9.184;2022-10-15T08:46:41;19.30;99.90
1297;DHT22;641;48.492;9.184;2022-10-15T08:49:21;19.40;99.90
1297;DHT22;641;48.492;9.184;2022-10-15T08:51:53;19.50;99.90
1297;DHT22;641;48.492;9.184;2022-10-15T08:54:19;19.60;99.90
1297;DHT22;641;48.492;9.184;2022-10-15T08:57:05;19.90;99.90
1297;DHT22;641;48.492;9.184;2022-10-15T08:59:43;19.50;99.90
1297;DHT22;641;48.492;9.184;2022-10-15T09:02:16;19.50;99.90
1297;DHT22;641;48.492;9.184;2022-10-15T09:04:48;19.90;99.90
1297;DHT22;641;48.492;9.184;2022-10-15T09:07:35;19.50;99.90
1297;DHT22;641;48.492;9.184;2022-10-15T09:13:12;19.50;99.90
1297;DHT22;641;48.492;9.184;2022-10-15T09:15:51;19.50;99.90
1297;DHT22;641;48.492;9.184;2022-10-15T09:18:22;19.70;99.90
1297;DHT22;641;48.492;9.184;2022-10-15T09:20:49;19.50;99.90
1297;DHT22;641;48.492;9.184;2022-10-15T09:23:20;19.40;99.90
1297;DHT22;641;48.492;9.184;2022-10-15T09:26:26;19.50;99.90
1297;DHT22;641;48.492;9.184;2022-10-15T09:31:32;19.80;99.90
1297;DHT22;641;48.492;9.184;2022-10-15T09:34:28;19.80;99.90
1297;DHT22;641;48.492;9.184;2022-10-15T09:36:56;20.00;99.90
1297;DHT22;641;48.492;9.184;2022-10-15T09:39:36;20.10;99.90
1297;DHT22;641;48.492;9.184;2022-10-15T09:42:22;19.90;99.90
1297;DHT22;641;48.492;9.184;2022-10-15T09:44:51;19.70;99.90
1297;DHT22;641;48.492;9.184;2022-10-15T09:47:26;19.90;99.90
1297;DHT22;641;48.492;9.184;2022-10-15T09:49:52;19.90;99.90
1297;DHT22;641;48.492;9.184;2022-10-15T09:55:19;19.80;99.90
1297;DHT22;641;48.492;9.184;2022-10-15T09:57:53;19.40;99.90
1297;DHT22;641;48.492;9.184;2022-10-15T10:00:19;19.90;99.90
1297;DHT22;641;48.492;9.184;2022-10-15T10:03:03;19.60;99.90
1297;DHT22;641;48.492;9.184;2022-10-15T10:05:32;19.60;99.90
1297;DHT22;641;48.492;9.184;2022-10-15T10:08:17;20.00;99.90
1297;DHT22;641;48.492;9.184;2022-10-15T10:11:03;19.50;99.90
1297;DHT22;641;48.492;9.184;2022-10-15T10:13:32;19.50;99.90
1297;DHT22;641;48.492;9.184;2022-10-15T10:16:05;19.90;99.90
1297;DHT22;641;48.492;9.184;2022-10-15T10:18:31;19.60;99.90
1297;DHT22;641;48.492;9.184;2022-10-15T10:20:59;20.10;99.90
1297;DHT22;641;48.492;9.184;2022-10-15T10:23:37;19.90;99.90
1297;DHT22;641;48.492;9.184;2022-10-15T10:26:08;19.90;99.90
1297;DHT22;641;48.492;9.184;2022-10-15T10:28:55;20.00;99.90
1297;DHT22;641;48.492;9.184;2022-10-15T10:31:29;20.00;99.90
1297;DHT22;641;48.492;9.184;2022-10-15T10:33:59;20.20;99.90
1297;DHT22;641;48.492;9.184;2022-10-15T10:36:31;20.10;99.90
1297;DHT22;641;48.492;9.184;2022-10-15T10:44:38;20.10;99.90
1297;DHT22;641;48.492;9.184;2022-10-15T10:49:41;20.10;99.90
1297;DHT22;641;48.492;9.184;2022-10-15T10:55:16;20.80;99.90
1297;DHT22;641;48.492;9.184;2022-10-15T10:57:49;20.60;99.90
1297;DHT22;641;48.492;9.184;2022-10-15T11:00:36;20.60;99.90
1297;DHT22;641;48.492;9.184;2022-10-15T11:03:03;21.10;99.90
1297;DHT22;641;48.492;9.184;2022-10-15T11:05:32;21.20;99.90
1297;DHT22;641;48.492;9.184;2022-10-15T11:10:46;21.00;99.90
1297;DHT22;641;48.492;9.184;2022-10-15T11:16:06;20.90;99.90
1297;DHT22;641;48.492;9.184;2022-10-15T11:31:34;20.60;99.90
1297;DHT22;641;48.492;9.184;2022-10-15T11:50:29;20.90;99.90
1297;DHT22;641;48.492;9.184;2022-10-15T11:55:51;21.00;99.90
1297;DHT22;641;48.492;9.184;2022-10-15T11:58:32;20.90;99.90
1297;DHT22;641;48.492;9.184;2022-10-15T12:01:14;21.10;99.90
1297;DHT22;641;48.492;9.184;2022-10-15T12:03:50;20.70;99.90
1297;DHT22;641;48.492;9.184;2022-10-15T12:06:20;20.90;99.90
1297;DHT22;641;48.492;9.184;2022-10-15T12:08:47;20.40;99.90
1297;DHT22;641;48.492;9.184;2022-10-15T12:14:24;20.50;99.90
1297;DHT22;641;48.492;9.184;2022-10-15T12:17:07;20.70;99.90
1297;DHT22;641;48.492;9.184;2022-10-15T12:22:06;20.90;99.90
1297;DHT22;641;48.492;9.184;2022-10-15T12:29:50;21.70;99.90
1297;DHT22;641;48.492;9.184;2022-10-15T12:35:29;21.70;99.90
1297;DHT22;641;48.492;9.184;2022-10-15T12:38:17;21.40;99.90
1297;DHT22;641;48.492;9.184;2022-10-15T12:40:44;21.40;99.90
1297;DHT22;641;48.492;9.184;2022-10-15T12:43:18;21.20;99.90
1297;DHT22;641;48.492;9.184;2022-10-15T12:46:06;21.30;99.90
1297;DHT22;641;48.492;9.184;2022-10-15T12:48:38;21.40;99.90
1297;DHT22;641;48.492;9.184;2022-10-15T12:53:52;21.40;99.90
1297;DHT22;641;48.492;9.184;2022-10-15T12:56:23;21.30;99.90
1297;DHT22;641;48.492;9.184;2022-10-15T12:58:55;21.40;99.90
1297;DHT22;641;48.492;9.184;2022-10-15T13:14:02;21.40;99.90
1297;DHT22;641;48.492;9.184;2022-10-15T13:16:35;21.50;99.90
1297;DHT22;641;48.492;9.184;2022-10-15T13:19:02;21.40;99.90
1297;DHT22;641;48.492;9.184;2022-10-15T13:21:48;21.50;99.90
1297;DHT22;641;48.492;9.184;2022-10-15T13:24:18;21.80;99.90
1297;DHT22;641;48.492;9.184;2022-10-15T13:26:44;21.50;99.90
1297;DHT22;641;48.492;9.184;2022-10-15T13:29:18;21.90;99.90
1297;DHT22;641;48.492;9.184;2022-10-15T13:31:45;21.40;99.90
1297;DHT22;641;48.492;9.184;2022-10-15T13:36:50;21.30;99.90
1297;DHT22;641;48.492;9.184;2022-10-15T13:39:35;21.30;99.90
1297;DHT22;641;48.492;9.184;2022-10-15T13:42:15;21.10;99.90
1297;DHT22;641;48.492;9.184;2022-10-15T13:44:43;21.10;99.90
1297;DHT22;641;48.492;9.184;2022-10-15T13:47:29;20.90;99.90
1297;DHT22;641;48.492;9.184;2022-10-15T13:50:20;21.00;99.90
1297;DHT22;641;48.492;9.184;2022-10-15T13:52:56;20.90;99.90
1297;DHT22;641;48.492;9.184;2022-10-15T13:55:27;20.80;99.90
1297;DHT22;641;48.492;9.184;2022-10-15T13:58:01;20.80;99.90
1297;DHT22;641;48.492;9.184;2022-10-15T14:00:31;20.90;99.90
1297;DHT22;641;48.492;9.184;2022-10-15T14:05:40;20.90;99.90
1297;DHT22;641;48.492;9.184;2022-10-15T14:08:32;20.90;99.90
1297;DHT22;641;48.492;9.184;2022-10-15T14:10:59;20.80;99.90
1297;DHT22;641;48.492;9.184;2022-10-15T14:13:26;20.70;99.90
1297;DHT22;641;48.492;9.184;2022-10-15T14:15:53;20.60;99.90
1297;DHT22;641;48.492;9.184;2022-10-15T14:18:38;20.60;99.90
1297;DHT22;641;48.492;9.184;2022-10-15T14:21:17;20.70;99.90
1297;DHT22;641;48.492;9.184;2022-10-15T14:23:45;20.60;99.90
1297;DHT22;641;48.492;9.184;2022-10-15T14:26:12;20.50;99.90
1297;DHT22;641;48.492;9.184;2022-10-15T14:28:38;20.40;99.90
1297;DHT22;641;48.492;9.184;2022-10-15T14:31:05;20.60;99.90
1297;DHT22;641;48.492;9.184;2022-10-15T14:38:43;20.70;99.90
1297;DHT22;641;48.492;9.184;2022-10-15T14:41:23;21.10;99.90
1297;DHT22;641;48.492;9.184;2022-10-15T14:46:41;20.70;99.90
1297;DHT22;641;48.492;9.184;2022-10-15T14:49:31;20.90;99.90
1297;DHT22;641;48.492;9.184;2022-10-15T14:52:03;20.90;99.90
1297;DHT22;641;48.492;9.184;2022-10-15T14:54:37;20.90;99.90
1297;DHT22;641;48.492;9.184;2022-10-15T14:57:04;20.90;99.90
1297;DHT22;641;48.492;9.184;2022-10-15T14:59:37;20.80;99.90
1297;DHT22;641;48.492;9.184;2022-10-15T15:02:03;21.00;99.90
1297;DHT22;641;48.492;9.184;2022-10-15T15:04:39;20.70;99.90
1297;DHT22;641;48.492;9.184;2022-10-15T15:07:17;21.10;99.90
1297;DHT22;641;48.492;9.184;2022-10-15T15:09:46;21.20;99.90
1297;DHT22;641;48.492;9.184;2022-10-15T15:12:18;21.20;99.90
1297;DHT22;641;48.492;9.184;2022-10-15T15:14:45;21.10;99.90
1297;DHT22;641;48.492;9.184;2022-10-15T15:17:20;21.10;99.90
1297;DHT22;641;48.492;9.184;2022-10-15T15:19:47;21.00;99.90
1297;DHT22;641;48.492;9.184;2022-10-15T15:22:16;20.90;99.90
1297;DHT22;641;48.492;9.184;2022-10-15T15:24:43;20.90;99.90
1297;DHT22;641;48.492;9.184;2022-10-15T15:27:22;20.90;99.90
1297;DHT22;641;48.492;9.184;2022-10-15T15:29:49;20.90;99.90
1297;DHT22;641;48.492;9.184;2022-10-15T15:32:15;20.90;99.90
1297;DHT22;641;48.492;9.184;2022-10-15T15:34:41;20.80;99.90
1297;DHT22;641;48.492;9.184;2022-10-15T15:37:33;20.90;99.90
1297;DHT22;641;48.492;9.184;2022-10-15T15:39:58;20.90;99.90
1297;DHT22;641;48.492;9.184;2022-10-15T15:42:24;21.10;99.90
1297;DHT22;641;48.492;9.184;2022-10-15T15:44:49;21.20;99.90
1297;DHT22;641;48.492;9.184;2022-10-15T15:47:15;21.50;99.90
1297;DHT22;641;48.492;9.184;2022-10-15T15:49:41;21.00;99.90
1297;DHT22;641;48.492;9.184;2022-10-15T15:52:11;20.40;99.90
1297;DHT22;641;48.492;9.184;2022-10-15T15:54:43;20.60;99.90
1297;DHT22;641;48.492;9.184;2022-10-15T15:57:11;20.60;99.90
1297;DHT22;641;48.492;9.184;2022-10-15T15:59:36;20.50;99.90
1297;DHT22;641;48.492;9.184;2022-10-15T16:02:02;20.50;99.90
1297;DHT22;641;48.492;9.184;2022-10-15T16:04:27;20.50;99.90
1297;DHT22;641;48.492;9.184;2022-10-15T16:06:53;20.80;99.90
1297;DHT22;641;48.492;9.184;2022-10-15T16:09:19;20.60;99.90
1297;DHT22;641;48.492;9.184;2022-10-15T16:11:47;20.70;99.90
1297;DHT22;641;48.492;9.184;2022-10-15T16:14:12;20.50;99.90
1297;DHT22;641;48.492;9.184;2022-10-15T16:16:38;20.60;99.90
1297;DHT22;641;48.492;9.184;2022-10-15T16:19:04;20.60;99.90
1297;DHT22;641;48.492;9.184;2022-10-15T16:21:30;20.70;99.90
1297;DHT22;641;48.492;9.184;2022-10-15T16:23:55;21.00;99.90
1297;DHT22;641;48.492;9.184;2022-10-15T16:26:21;20.60;99.90
1297;DHT22;641;48.492;9.184;2022-10-15T16:28:47;20.90;99.90
1297;DHT22;641;48.492;9.184;2022-10-15T16:31:18;20.60;99.90
1297;DHT22;641;48.492;9.184;2022-10-15T16:33:44;20.70;99.90
1297;DHT22;641;48.492;9.184;2022-10-15T16:36:10;21.00;99.90
1297;DHT22;641;48.492;9.184;2022-10-15T16:38:38;20.60;99.90
1297;DHT22;641;48.492;9.184;2022-10-15T16:41:05;20.60;99.90
1297;DHT22;641;48.492;9.184;2022-10-15T16:43:31;20.60;99.90
1297;DHT22;641;48.492;9.184;2022-10-15T16:45:57;20.80;99.90
1297;DHT22;641;48.492;9.184;2022-10-15T16:48:24;20.30;99.90
1297;DHT22;641;48.492;9.184;2022-10-15T16:51:06;20.30;99.90
1297;DHT22;641;48.492;9.184;2022-10-15T16:53:33;20.30;99.90
1297;DHT22;641;48.492;9.184;2022-10-15T16:56:06;20.20;99.90
1297;DHT22;641;48.492;9.184;2022-10-15T16:58:32;20.20;99.90
1297;DHT22;641;48.492;9.184;2022-10-15T17:01:04;20.10;99.90
1297;DHT22;641;48.492;9.184;2022-10-15T17:03:33;20.00;99.90
1297;DHT22;641;48.492;9.184;2022-10-15T17:05:59;20.10;99.90
1297;DHT22;641;48.492;9.184;2022-10-15T17:08:36;20.20;99.90
1297;DHT22;641;48.492;9.184;2022-10-15T17:11:02;19.90;99.90
1297;DHT22;641;48.492;9.184;2022-10-15T17:13:28;20.10;99.90
1297;DHT22;641;48.492;9.184;2022-10-15T17:15:53;19.70;99.90
1297;DHT22;641;48.492;9.184;2022-10-15T17:18:19;20.10;99.90
1297;DHT22;641;48.492;9.184;2022-10-15T17:20:46;19.60;99.90
1297;DHT22;641;48.492;9.184;2022-10-15T17:23:12;19.60;99.90
1297;DHT22;641;48.492;9.184;2022-10-15T17:25:39;20.00;99.90
1297;DHT22;641;48.492;9.184;2022-10-15T17:28:04;19.70;99.90
1297;DHT22;641;48.492;9.184;2022-10-15T17:30:36;19.60;99.90
1297;DHT22;641;48.492;9.184;2022-10-15T17:33:03;19.70;99.90
1297;DHT22;641;48.492;9.184;2022-10-15T17:35:30;19.70;99.90
1297;DHT22;641;48.492;9.184;2022-10-15T17:37:57;20.10;99.90
1297;DHT22;641;48.492;9.184;2022-10-15T17:40:23;19.70;99.90
1297;DHT22;641;48.492;9.184;2022-10-15T17:42:49;19.70;99.90
1297;DHT22;641;48.492;9.184;2022-10-15T17:45:15;20.00;99.90
1297;DHT22;641;48.492;9.184;2022-10-15T17:47:42;19.70;99.90
1297;DHT22;641;48.492;9.184;2022-10-15T17:50:08;19.70;99.90
1297;DHT22;641;48.492;9.184;2022-10-15T17:52:37;19.70;99.90
1297;DHT22;641;48.492;9.184;2022-10-15T17:55:05;19.70;99.90
1297;DHT22;641;48.492;9.184;2022-10-15T17:57:31;19.60;99.90
1297;DHT22;641;48.492;9.184;2022-10-15T17:59:57;19.70;99.90
1297;DHT22;641;48.492;9.184;2022-10-15T18:02:22;19.70;99.90
1297;DHT22;641;48.492;9.184;2022-10-15T18:04:48;19.80;99.90
1297;DHT22;641;48.492;9.184;2022-10-15T18:07:14;19.60;99.90
1297;DHT22;641;48.492;9.184;2022-10-15T18:09:42;19.90;99.90
1297;DHT22;641;48.492;9.184;2022-10-15T18:12:08;19.80;99.90
1297;DHT22;641;48.492;9.184;2022-10-15T18:14:35;19.50;99.90
1297;DHT22;641;48.492;9.184;2022-10-15T18:17:01;19.90;99.90
1297;DHT22;641;48.492;9.184;2022-10-15T18:19:27;19.50;99.90
1297;DHT22;641;48.492;9.184;2022-10-15T18:21:53;19.90;99.90
1297;DHT22;641;48.492;9.184;2022-10-15T18:24:19;19.50;99.90
1297;DHT22;641;48.492;9.184;2022-10-15T18:26:46;19.40;99.90
1297;DHT22;641;48.492;9.184;2022-10-15T18:29:12;19.40;99.90
1297;DHT22;641;48.492;9.184;2022-10-15T18:31:37;19.40;99.90